sensor_id;sensor_type;location;lat;lon;timestamp;P1;durP1;ratioP1;P2;durP2;ratioP2
10005;SDS011;5042;42.626;23.382;2023-07-29T00:01:12;1.90;;;1.80;;
10005;SDS011;5042;42.626;23.382;2023-07-29T00:03:39;2.13;;;1.92;;
10005;SDS011;5042;42.626;23.382;2023-07-29T00:06:06;2.17;;;2.00;;
10005;SDS011;5042;42.626;23.382;2023-07-29T00:08:32;1.75;;;1.65;;
10005;SDS011;5042;42.626;23.382;2023-07-29T00:10:59;2.10;;;1.83;;
10005;SDS011;5042;42.626;23.382;2023-07-29T00:13:26;2.85;;;1.90;;
10005;SDS011;5042;42.626;23.382;2023-07-29T00:15:54;2.13;;;1.98;;
10005;SDS011;5042;42.626;23.382;2023-07-29T00:18:21;2.65;;;2.10;;
10005;SDS011;5042;42.626;23.382;2023-07-29T00:20:48;2.08;;;1.92;;
10005;SDS011;5042;42.626;23.382;2023-07-29T00:23:16;2.13;;;2.03;;
10005;SDS011;5042;42.626;23.382;2023-07-29T00:25:44;1.90;;;1.80;;
10005;SDS011;5042;42.626;23.382;2023-07-29T00:28:11;2.00;;;1.90;;
10005;SDS011;5042;42.626;23.382;2023-07-29T00:30:37;2.13;;;2.03;;
10005;SDS011;5042;42.626;23.382;2023-07-29T00:33:05;2.08;;;1.88;;
10005;SDS011;5042;42.626;23.382;2023-07-29T00:35:32;2.30;;;2.10;;
10005;SDS011;5042;42.626;23.382;2023-07-29T00:37:59;2.17;;;1.98;;
10005;SDS011;5042;42.626;23.382;2023-07-29T00:40:28;4.80;;;2.50;;
10005;SDS011;5042;42.626;23.382;2023-07-29T00:42:55;2.85;;;2.60;;
10005;SDS011;5042;42.626;23.382;2023-07-29T00:45:21;2.70;;;2.45;;
10005;SDS011;5042;42.626;23.382;2023-07-29T00:47:51;4.97;;;2.55;;
10005;SDS011;5042;42.626;23.382;2023-07-29T00:50:19;2.42;;;2.22;;
10005;SDS011;5042;42.626;23.382;2023-07-29T00:52:46;2.63;;;2.40;;
10005;SDS011;5042;42.626;23.382;2023-07-29T00:55:12;2.55;;;2.35;;
10005;SDS011;5042;42.626;23.382;2023-07-29T00:57:39;2.58;;;2.38;;
10005;SDS011;5042;42.626;23.382;2023-07-29T01:00:07;2.60;;;2.40;;
10005;SDS011;5042;42.626;23.382;2023-07-29T01:02:35;2.25;;;2.10;;
10005;SDS011;5042;42.626;23.382;2023-07-29T01:05:02;2.58;;;2.38;;
10005;SDS011;5042;42.626;23.382;2023-07-29T01:07:33;2.53;;;2.33;;
10005;SDS011;5042;42.626;23.382;2023-07-29T01:10:07;2.70;;;2.50;;
10005;SDS011;5042;42.626;23.382;2023-07-29T01:12:46;2.55;;;2.35;;
10005;SDS011;5042;42.626;23.382;2023-07-29T01:15:18;2.63;;;2.42;;
10005;SDS011;5042;42.626;23.382;2023-07-29T01:17:49;2.88;;;2.33;;
10005;SDS011;5042;42.626;23.382;2023-07-29T01:20:20;2.70;;;2.30;;
10005;SDS011;5042;42.626;23.382;2023-07-29T01:22:51;3.10;;;2.70;;
10005;SDS011;5042;42.626;23.382;2023-07-29T01:25:19;2.35;;;2.15;;
10005;SDS011;5042;42.626;23.382;2023-07-29T01:27:47;2.78;;;2.58;;
10005;SDS011;5042;42.626;23.382;2023-07-29T01:30:16;2.70;;;2.38;;
10005;SDS011;5042;42.626;23.382;2023-07-29T01:32:45;2.20;;;2.10;;
10005;SDS011;5042;42.626;23.382;2023-07-29T01:35:21;2.63;;;2.42;;
10005;SDS011;5042;42.626;23.382;2023-07-29T01:37:51;2.47;;;2.28;;
10005;SDS011;5042;42.626;23.382;2023-07-29T01:40:23;2.60;;;2.40;;
10005;SDS011;5042;42.626;23.382;2023-07-29T01:42:53;2.53;;;2.30;;
10005;SDS011;5042;42.626;23.382;2023-07-29T01:45:22;2.20;;;2.05;;
10005;SDS011;5042;42.626;23.382;2023-07-29T01:47:49;2.50;;;2.40;;
10005;SDS011;5042;42.626;23.382;2023-07-29T01:50:16;2.50;;;2.30;;
10005;SDS011;5042;42.626;23.382;2023-07-29T01:52:43;2.88;;;2.58;;
10005;SDS011;5042;42.626;23.382;2023-07-29T01:55:10;2.40;;;2.20;;
10005;SDS011;5042;42.626;23.382;2023-07-29T01:57:38;2.50;;;2.30;;
10005;SDS011;5042;42.626;23.382;2023-07-29T02:00:05;2.80;;;2.60;;
10005;SDS011;5042;42.626;23.382;2023-07-29T02:02:33;2.67;;;2.30;;
10005;SDS011;5042;42.626;23.382;2023-07-29T02:04:59;3.03;;;2.72;;
10005;SDS011;5042;42.626;23.382;2023-07-29T02:07:26;3.22;;;2.60;;
10005;SDS011;5042;42.626;23.382;2023-07-29T02:09:53;2.80;;;2.47;;
10005;SDS011;5042;42.626;23.382;2023-07-29T02:12:19;2.80;;;2.55;;
10005;SDS011;5042;42.626;23.382;2023-07-29T02:14:47;2.90;;;2.70;;
10005;SDS011;5042;42.626;23.382;2023-07-29T02:17:14;2.22;;;2.13;;
10005;SDS011;5042;42.626;23.382;2023-07-29T02:19:41;2.80;;;2.60;;
10005;SDS011;5042;42.626;23.382;2023-07-29T02:22:08;2.80;;;2.50;;
10005;SDS011;5042;42.626;23.382;2023-07-29T02:24:34;3.85;;;2.95;;
10005;SDS011;5042;42.626;23.382;2023-07-29T02:27:01;2.83;;;2.63;;
10005;SDS011;5042;42.626;23.382;2023-07-29T02:29:28;2.92;;;2.72;;
10005;SDS011;5042;42.626;23.382;2023-07-29T02:31:57;2.50;;;2.30;;
10005;SDS011;5042;42.626;23.382;2023-07-29T02:34:23;2.50;;;2.30;;
10005;SDS011;5042;42.626;23.382;2023-07-29T02:36:50;2.70;;;2.50;;
10005;SDS011;5042;42.626;23.382;2023-07-29T02:39:17;2.72;;;2.40;;
10005;SDS011;5042;42.626;23.382;2023-07-29T02:41:43;3.00;;;2.40;;
10005;SDS011;5042;42.626;23.382;2023-07-29T02:44:10;2.72;;;2.53;;
10005;SDS011;5042;42.626;23.382;2023-07-29T02:46:37;2.75;;;2.47;;
10005;SDS011;5042;42.626;23.382;2023-07-29T02:49:05;2.60;;;2.40;;
10005;SDS011;5042;42.626;23.382;2023-07-29T02:51:31;2.45;;;2.25;;
10005;SDS011;5042;42.626;23.382;2023-07-29T02:53:58;2.60;;;2.40;;
10005;SDS011;5042;42.626;23.382;2023-07-29T02:56:25;2.60;;;2.40;;
10005;SDS011;5042;42.626;23.382;2023-07-29T02:58:51;4.38;;;2.95;;
10005;SDS011;5042;42.626;23.382;2023-07-29T03:01:18;2.50;;;2.30;;
10005;SDS011;5042;42.626;23.382;2023-07-29T03:03:45;3.00;;;2.70;;
10005;SDS011;5042;42.626;23.382;2023-07-29T03:06:13;2.72;;;2.33;;
10005;SDS011;5042;42.626;23.382;2023-07-29T03:08:40;2.72;;;2.50;;
10005;SDS011;5042;42.626;23.382;2023-07-29T03:11:07;2.67;;;2.47;;
10005;SDS011;5042;42.626;23.382;2023-07-29T03:13:35;4.90;;;2.80;;
10005;SDS011;5042;42.626;23.382;2023-07-29T03:16:05;3.03;;;2.80;;
10005;SDS011;5042;42.626;23.382;2023-07-29T03:18:32;2.90;;;2.45;;
10005;SDS011;5042;42.626;23.382;2023-07-29T03:20:59;2.70;;;2.50;;
10005;SDS011;5042;42.626;23.382;2023-07-29T03:23:28;3.03;;;2.67;;
10005;SDS011;5042;42.626;23.382;2023-07-29T03:25:55;3.20;;;2.90;;
10005;SDS011;5042;42.626;23.382;2023-07-29T03:28:23;2.85;;;2.63;;
10005;SDS011;5042;42.626;23.382;2023-07-29T03:30:51;3.03;;;2.80;;
10005;SDS011;5042;42.626;23.382;2023-07-29T03:33:17;3.25;;;2.75;;
10005;SDS011;5042;42.626;23.382;2023-07-29T03:35:44;3.42;;;3.13;;
10005;SDS011;5042;42.626;23.382;2023-07-29T03:38:11;4.18;;;2.58;;
10005;SDS011;5042;42.626;23.382;2023-07-29T03:40:39;3.17;;;2.92;;
10005;SDS011;5042;42.626;23.382;2023-07-29T03:43:06;3.28;;;2.97;;
10005;SDS011;5042;42.626;23.382;2023-07-29T03:45:33;3.72;;;3.22;;
10005;SDS011;5042;42.626;23.382;2023-07-29T03:48:01;3.60;;;2.83;;
10005;SDS011;5042;42.626;23.382;2023-07-29T03:50:28;3.03;;;2.83;;
10005;SDS011;5042;42.626;23.382;2023-07-29T03:52:55;3.33;;;3.03;;
10005;SDS011;5042;42.626;23.382;2023-07-29T03:55:22;3.00;;;2.80;;
10005;SDS011;5042;42.626;23.382;2023-07-29T03:57:50;3.45;;;3.10;;
10005;SDS011;5042;42.626;23.382;2023-07-29T04:00:16;3.53;;;3.22;;
10005;SDS011;5042;42.626;23.382;2023-07-29T04:02:43;5.25;;;3.30;;
10005;SDS011;5042;42.626;23.382;2023-07-29T04:05:10;3.58;;;3.28;;
10005;SDS011;5042;42.626;23.382;2023-07-29T04:07:37;4.90;;;3.58;;
10005;SDS011;5042;42.626;23.382;2023-07-29T04:10:05;3.90;;;3.40;;
10005;SDS011;5042;42.626;23.382;2023-07-29T04:12:32;3.20;;;3.00;;
10005;SDS011;5042;42.626;23.382;2023-07-29T04:15:01;3.45;;;3.20;;
10005;SDS011;5042;42.626;23.382;2023-07-29T04:17:28;3.65;;;3.35;;
10005;SDS011;5042;42.626;23.382;2023-07-29T04:19:55;3.53;;;3.00;;
10005;SDS011;5042;42.626;23.382;2023-07-29T04:22:21;3.67;;;3.00;;
10005;SDS011;5042;42.626;23.382;2023-07-29T04:24:48;3.10;;;2.88;;
10005;SDS011;5042;42.626;23.382;2023-07-29T04:27:15;3.38;;;3.08;;
10005;SDS011;5042;42.626;23.382;2023-07-29T04:29:41;3.63;;;2.85;;
10005;SDS011;5042;42.626;23.382;2023-07-29T04:32:09;3.63;;;2.60;;
10005;SDS011;5042;42.626;23.382;2023-07-29T04:34:36;3.30;;;3.00;;
10005;SDS011;5042;42.626;23.382;2023-07-29T04:37:03;2.70;;;2.50;;
10005;SDS011;5042;42.626;23.382;2023-07-29T04:39:30;2.72;;;2.53;;
10005;SDS011;5042;42.626;23.382;2023-07-29T04:41:56;2.78;;;2.15;;
10005;SDS011;5042;42.626;23.382;2023-07-29T04:44:23;2.78;;;2.58;;
10005;SDS011;5042;42.626;23.382;2023-07-29T04:46:50;2.40;;;2.20;;
10005;SDS011;5042;42.626;23.382;2023-07-29T04:49:18;2.22;;;2.08;;
10005;SDS011;5042;42.626;23.382;2023-07-29T04:51:44;2.60;;;2.40;;
10005;SDS011;5042;42.626;23.382;2023-07-29T04:54:11;2.42;;;2.20;;
10005;SDS011;5042;42.626;23.382;2023-07-29T04:56:38;2.70;;;2.50;;
10005;SDS011;5042;42.626;23.382;2023-07-29T04:59:04;2.72;;;2.50;;
10005;SDS011;5042;42.626;23.382;2023-07-29T05:01:33;3.17;;;2.60;;
10005;SDS011;5042;42.626;23.382;2023-07-29T05:04:00;2.53;;;2.28;;
10005;SDS011;5042;42.626;23.382;2023-07-29T05:06:28;3.58;;;2.53;;
10005;SDS011;5042;42.626;23.382;2023-07-29T05:08:56;3.30;;;2.88;;
10005;SDS011;5042;42.626;23.382;2023-07-29T05:11:23;2.70;;;2.35;;
10005;SDS011;5042;42.626;23.382;2023-07-29T05:13:50;2.78;;;2.58;;
10005;SDS011;5042;42.626;23.382;2023-07-29T05:16:17;3.30;;;2.67;;
10005;SDS011;5042;42.626;23.382;2023-07-29T05:18:43;3.40;;;3.10;;
10005;SDS011;5042;42.626;23.382;2023-07-29T05:21:10;2.97;;;2.67;;
10005;SDS011;5042;42.626;23.382;2023-07-29T05:23:40;2.55;;;2.42;;
10005;SDS011;5042;42.626;23.382;2023-07-29T05:26:07;2.90;;;2.70;;
10005;SDS011;5042;42.626;23.382;2023-07-29T05:28:34;2.58;;;2.38;;
10005;SDS011;5042;42.626;23.382;2023-07-29T05:31:01;2.80;;;2.60;;
10005;SDS011;5042;42.626;23.382;2023-07-29T05:33:28;3.10;;;2.65;;
10005;SDS011;5042;42.626;23.382;2023-07-29T05:35:54;2.42;;;2.22;;
10005;SDS011;5042;42.626;23.382;2023-07-29T05:38:21;2.58;;;2.40;;
10005;SDS011;5042;42.626;23.382;2023-07-29T05:40:49;2.20;;;2.00;;
10005;SDS011;5042;42.626;23.382;2023-07-29T05:43:16;4.55;;;2.70;;
10005;SDS011;5042;42.626;23.382;2023-07-29T05:45:42;3.38;;;2.50;;
10005;SDS011;5042;42.626;23.382;2023-07-29T05:48:09;2.60;;;2.40;;
10005;SDS011;5042;42.626;23.382;2023-07-29T05:50:36;2.67;;;2.47;;
10005;SDS011;5042;42.626;23.382;2023-07-29T05:53:03;3.15;;;2.83;;
10005;SDS011;5042;42.626;23.382;2023-07-29T05:55:29;3.28;;;2.42;;
10005;SDS011;5042;42.626;23.382;2023-07-29T05:57:57;2.95;;;2.75;;
10005;SDS011;5042;42.626;23.382;2023-07-29T06:00:24;3.28;;;2.80;;
10005;SDS011;5042;42.626;23.382;2023-07-29T06:02:51;2.42;;;2.33;;
10005;SDS011;5042;42.626;23.382;2023-07-29T06:05:17;3.20;;;2.55;;
10005;SDS011;5042;42.626;23.382;2023-07-29T06:07:44;3.42;;;2.63;;
10005;SDS011;5042;42.626;23.382;2023-07-29T06:10:13;4.22;;;2.90;;
10005;SDS011;5042;42.626;23.382;2023-07-29T06:12:42;2.40;;;2.30;;
10005;SDS011;5042;42.626;23.382;2023-07-29T06:15:11;2.70;;;2.50;;
10005;SDS011;5042;42.626;23.382;2023-07-29T06:17:38;2.65;;;2.35;;
10005;SDS011;5042;42.626;23.382;2023-07-29T06:20:05;3.17;;;2.85;;
10005;SDS011;5042;42.626;23.382;2023-07-29T06:22:32;2.80;;;2.60;;
10005;SDS011;5042;42.626;23.382;2023-07-29T06:24:59;2.58;;;2.38;;
10005;SDS011;5042;42.626;23.382;2023-07-29T06:27:25;3.10;;;2.83;;
10005;SDS011;5042;42.626;23.382;2023-07-29T06:29:53;2.92;;;2.30;;
10005;SDS011;5042;42.626;23.382;2023-07-29T06:32:21;2.47;;;2.28;;
10005;SDS011;5042;42.626;23.382;2023-07-29T06:34:47;3.35;;;2.30;;
10005;SDS011;5042;42.626;23.382;2023-07-29T06:37:14;2.67;;;2.47;;
10005;SDS011;5042;42.626;23.382;2023-07-29T06:39:41;5.90;;;2.75;;
10005;SDS011;5042;42.626;23.382;2023-07-29T06:42:07;2.30;;;2.20;;
10005;SDS011;5042;42.626;23.382;2023-07-29T06:44:34;2.72;;;2.03;;
10005;SDS011;5042;42.626;23.382;2023-07-29T06:47:01;2.83;;;2.58;;
10005;SDS011;5042;42.626;23.382;2023-07-29T06:49:29;4.70;;;2.60;;
10005;SDS011;5042;42.626;23.382;2023-07-29T06:51:55;4.28;;;2.70;;
10005;SDS011;5042;42.626;23.382;2023-07-29T06:54:24;3.25;;;2.28;;
10005;SDS011;5042;42.626;23.382;2023-07-29T06:56:51;2.90;;;2.40;;
10005;SDS011;5042;42.626;23.382;2023-07-29T06:59:18;2.67;;;2.25;;
10005;SDS011;5042;42.626;23.382;2023-07-29T07:01:44;2.80;;;2.58;;
10005;SDS011;5042;42.626;23.382;2023-07-29T07:04:11;2.45;;;2.25;;
10005;SDS011;5042;42.626;23.382;2023-07-29T07:06:39;2.30;;;2.10;;
10005;SDS011;5042;42.626;23.382;2023-07-29T07:09:06;2.25;;;2.15;;
10005;SDS011;5042;42.626;23.382;2023-07-29T07:11:33;2.20;;;2.00;;
10005;SDS011;5042;42.626;23.382;2023-07-29T07:13:59;3.05;;;2.67;;
10005;SDS011;5042;42.626;23.382;2023-07-29T07:16:26;2.83;;;2.63;;
10005;SDS011;5042;42.626;23.382;2023-07-29T07:18:55;2.88;;;2.58;;
10005;SDS011;5042;42.626;23.382;2023-07-29T07:21:22;2.65;;;2.45;;
10005;SDS011;5042;42.626;23.382;2023-07-29T07:23:50;3.65;;;2.63;;
10005;SDS011;5042;42.626;23.382;2023-07-29T07:26:17;2.72;;;2.53;;
10005;SDS011;5042;42.626;23.382;2023-07-29T07:28:43;2.85;;;2.65;;
10005;SDS011;5042;42.626;23.382;2023-07-29T07:31:10;3.97;;;2.80;;
10005;SDS011;5042;42.626;23.382;2023-07-29T07:33:37;3.75;;;2.90;;
10005;SDS011;5042;42.626;23.382;2023-07-29T07:36:04;4.78;;;2.63;;
10005;SDS011;5042;42.626;23.382;2023-07-29T07:38:31;4.22;;;2.97;;
10005;SDS011;5042;42.626;23.382;2023-07-29T07:40:59;3.28;;;2.90;;
10005;SDS011;5042;42.626;23.382;2023-07-29T07:43:25;2.95;;;2.67;;
10005;SDS011;5042;42.626;23.382;2023-07-29T07:45:57;3.22;;;2.85;;
10005;SDS011;5042;42.626;23.382;2023-07-29T07:48:24;2.38;;;2.17;;
10005;SDS011;5042;42.626;23.382;2023-07-29T07:50:51;2.47;;;2.22;;
10005;SDS011;5042;42.626;23.382;2023-07-29T07:53:18;4.07;;;2.60;;
10005;SDS011;5042;42.626;23.382;2023-07-29T07:55:45;2.92;;;2.63;;
10005;SDS011;5042;42.626;23.382;2023-07-29T07:58:13;2.97;;;2.78;;
10005;SDS011;5042;42.626;23.382;2023-07-29T08:00:40;5.00;;;2.72;;
10005;SDS011;5042;42.626;23.382;2023-07-29T08:03:06;5.47;;;2.70;;
10005;SDS011;5042;42.626;23.382;2023-07-29T08:05:33;3.80;;;2.83;;
10005;SDS011;5042;42.626;23.382;2023-07-29T08:08:00;3.22;;;2.92;;
10005;SDS011;5042;42.626;23.382;2023-07-29T08:10:26;2.80;;;2.60;;
10005;SDS011;5042;42.626;23.382;2023-07-29T08:12:53;3.08;;;2.65;;
10005;SDS011;5042;42.626;23.382;2023-07-29T08:15:21;2.58;;;2.38;;
10005;SDS011;5042;42.626;23.382;2023-07-29T08:17:48;3.67;;;2.80;;
10005;SDS011;5042;42.626;23.382;2023-07-29T08:20:14;2.70;;;2.50;;
10005;SDS011;5042;42.626;23.382;2023-07-29T08:22:41;3.03;;;2.72;;
10005;SDS011;5042;42.626;23.382;2023-07-29T08:25:08;4.20;;;2.70;;
10005;SDS011;5042;42.626;23.382;2023-07-29T08:27:35;2.80;;;2.60;;
10005;SDS011;5042;42.626;23.382;2023-07-29T08:30:02;2.45;;;2.33;;
10005;SDS011;5042;42.626;23.382;2023-07-29T08:32:30;2.90;;;2.70;;
10005;SDS011;5042;42.626;23.382;2023-07-29T08:34:56;2.95;;;2.65;;
10005;SDS011;5042;42.626;23.382;2023-07-29T08:37:23;2.95;;;2.60;;
10005;SDS011;5042;42.626;23.382;2023-07-29T08:39:50;3.05;;;2.40;;
10005;SDS011;5042;42.626;23.382;2023-07-29T08:42:18;2.78;;;2.30;;
10005;SDS011;5042;42.626;23.382;2023-07-29T08:44:46;4.63;;;2.47;;
10005;SDS011;5042;42.626;23.382;2023-07-29T08:47:15;3.22;;;2.90;;
10005;SDS011;5042;42.626;23.382;2023-07-29T08:49:44;2.53;;;2.35;;
10005;SDS011;5042;42.626;23.382;2023-07-29T08:52:12;3.88;;;2.50;;
10005;SDS011;5042;42.626;23.382;2023-07-29T08:54:40;3.03;;;2.63;;
10005;SDS011;5042;42.626;23.382;2023-07-29T08:57:07;2.72;;;2.28;;
10005;SDS011;5042;42.626;23.382;2023-07-29T08:59:33;2.00;;;1.90;;
10005;SDS011;5042;42.626;23.382;2023-07-29T09:02:00;2.60;;;2.38;;
10005;SDS011;5042;42.626;23.382;2023-07-29T09:04:27;3.60;;;2.70;;
10005;SDS011;5042;42.626;23.382;2023-07-29T09:06:56;2.25;;;2.15;;
10005;SDS011;5042;42.626;23.382;2023-07-29T09:09:25;2.75;;;2.33;;
10005;SDS011;5042;42.626;23.382;2023-07-29T09:11:51;2.08;;;1.98;;
10005;SDS011;5042;42.626;23.382;2023-07-29T09:14:18;2.47;;;2.28;;
10005;SDS011;5042;42.626;23.382;2023-07-29T09:16:45;3.75;;;2.35;;
10005;SDS011;5042;42.626;23.382;2023-07-29T09:19:12;2.08;;;1.92;;
10005;SDS011;5042;42.626;23.382;2023-07-29T09:21:39;2.75;;;2.50;;
10005;SDS011;5042;42.626;23.382;2023-07-29T09:24:08;2.00;;;1.90;;
10005;SDS011;5042;42.626;23.382;2023-07-29T09:26:35;4.05;;;2.00;;
10005;SDS011;5042;42.626;23.382;2023-07-29T09:29:02;1.85;;;1.60;;
10005;SDS011;5042;42.626;23.382;2023-07-29T09:31:29;1.80;;;1.42;;
10005;SDS011;5042;42.626;23.382;2023-07-29T09:33:56;1.88;;;1.70;;
10005;SDS011;5042;42.626;23.382;2023-07-29T09:36:24;1.40;;;1.30;;
10005;SDS011;5042;42.626;23.382;2023-07-29T09:38:54;1.52;;;1.40;;
10005;SDS011;5042;42.626;23.382;2023-07-29T09:41:23;3.65;;;1.70;;
10005;SDS011;5042;42.626;23.382;2023-07-29T09:43:55;2.40;;;1.83;;
10005;SDS011;5042;42.626;23.382;2023-07-29T09:46:23;1.55;;;1.23;;
10005;SDS011;5042;42.626;23.382;2023-07-29T09:48:52;1.02;;;1.02;;
10005;SDS011;5042;42.626;23.382;2023-07-29T09:51:19;0.90;;;0.90;;
10005;SDS011;5042;42.626;23.382;2023-07-29T09:53:46;1.23;;;1.17;;
10005;SDS011;5042;42.626;23.382;2023-07-29T09:56:14;2.20;;;1.20;;
10005;SDS011;5042;42.626;23.382;2023-07-29T09:58:43;3.55;;;1.25;;
10005;SDS011;5042;42.626;23.382;2023-07-29T10:01:11;1.27;;;0.98;;
10005;SDS011;5042;42.626;23.382;2023-07-29T10:03:38;1.52;;;1.42;;
10005;SDS011;5042;42.626;23.382;2023-07-29T10:06:05;1.83;;;1.30;;
10005;SDS011;5042;42.626;23.382;2023-07-29T10:08:33;1.00;;;1.00;;
10005;SDS011;5042;42.626;23.382;2023-07-29T10:11:03;2.67;;;1.17;;
10005;SDS011;5042;42.626;23.382;2023-07-29T10:13:31;1.35;;;1.27;;
10005;SDS011;5042;42.626;23.382;2023-07-29T10:16:00;1.80;;;1.10;;
10005;SDS011;5042;42.626;23.382;2023-07-29T10:18:28;1.55;;;1.45;;
10005;SDS011;5042;42.626;23.382;2023-07-29T10:20:57;1.20;;;1.10;;
10005;SDS011;5042;42.626;23.382;2023-07-29T10:23:25;1.23;;;1.20;;
10005;SDS011;5042;42.626;23.382;2023-07-29T10:25:55;1.10;;;1.10;;
10005;SDS011;5042;42.626;23.382;2023-07-29T10:28:27;1.10;;;1.10;;
10005;SDS011;5042;42.626;23.382;2023-07-29T10:30:56;1.10;;;1.10;;
10005;SDS011;5042;42.626;23.382;2023-07-29T10:33:24;1.10;;;1.10;;
10005;SDS011;5042;42.626;23.382;2023-07-29T10:35:51;1.10;;;1.00;;
10005;SDS011;5042;42.626;23.382;2023-07-29T10:38:19;0.90;;;0.90;;
10005;SDS011;5042;42.626;23.382;2023-07-29T10:40:50;0.60;;;0.60;;
10005;SDS011;5042;42.626;23.382;2023-07-29T10:43:19;0.77;;;0.75;;
10005;SDS011;5042;42.626;23.382;2023-07-29T10:45:49;0.80;;;0.80;;
10005;SDS011;5042;42.626;23.382;2023-07-29T10:51:27;1.00;;;0.93;;
10005;SDS011;5042;42.626;23.382;2023-07-29T10:53:56;1.23;;;1.15;;
10005;SDS011;5042;42.626;23.382;2023-07-29T10:56:27;1.27;;;1.20;;
10005;SDS011;5042;42.626;23.382;2023-07-29T10:58:55;1.10;;;1.00;;
10005;SDS011;5042;42.626;23.382;2023-07-29T11:01:29;1.00;;;1.00;;
10005;SDS011;5042;42.626;23.382;2023-07-29T11:09:52;1.20;;;1.10;;
10005;SDS011;5042;42.626;23.382;2023-07-29T11:12:37;1.23;;;1.13;;
10005;SDS011;5042;42.626;23.382;2023-07-29T11:15:12;1.00;;;1.00;;
10005;SDS011;5042;42.626;23.382;2023-07-29T11:17:44;1.13;;;1.13;;
10005;SDS011;5042;42.626;23.382;2023-07-29T11:20:14;1.40;;;1.30;;
10005;SDS011;5042;42.626;23.382;2023-07-29T11:22:41;1.08;;;0.95;;
10005;SDS011;5042;42.626;23.382;2023-07-29T11:25:09;4.75;;;1.55;;
10005;SDS011;5042;42.626;23.382;2023-07-29T11:27:37;3.10;;;1.02;;
10005;SDS011;5042;42.626;23.382;2023-07-29T11:30:04;1.10;;;1.02;;
10005;SDS011;5042;42.626;23.382;2023-07-29T11:32:33;1.23;;;1.13;;
10005;SDS011;5042;42.626;23.382;2023-07-29T11:35:04;0.80;;;0.80;;
10005;SDS011;5042;42.626;23.382;2023-07-29T11:37:34;1.65;;;1.20;;
10005;SDS011;5042;42.626;23.382;2023-07-29T11:40:01;1.58;;;1.35;;
10005;SDS011;5042;42.626;23.382;2023-07-29T11:42:28;1.60;;;1.50;;
10005;SDS011;5042;42.626;23.382;2023-07-29T11:44:58;0.88;;;0.88;;
10005;SDS011;5042;42.626;23.382;2023-07-29T11:47:24;1.00;;;1.00;;
10005;SDS011;5042;42.626;23.382;2023-07-29T11:49:51;1.20;;;1.17;;
10005;SDS011;5042;42.626;23.382;2023-07-29T11:52:18;1.10;;;1.10;;
10005;SDS011;5042;42.626;23.382;2023-07-29T11:54:47;1.25;;;1.00;;
10005;SDS011;5042;42.626;23.382;2023-07-29T11:57:15;1.33;;;1.23;;
10005;SDS011;5042;42.626;23.382;2023-07-29T11:59:43;1.80;;;1.30;;
10005;SDS011;5042;42.626;23.382;2023-07-29T12:02:12;1.42;;;1.33;;
10005;SDS011;5042;42.626;23.382;2023-07-29T12:04:41;2.65;;;1.13;;
10005;SDS011;5042;42.626;23.382;2023-07-29T12:07:09;1.40;;;1.30;;
10005;SDS011;5042;42.626;23.382;2023-07-29T12:09:36;4.82;;;1.40;;
10005;SDS011;5042;42.626;23.382;2023-07-29T12:12:06;2.13;;;1.45;;
10005;SDS011;5042;42.626;23.382;2023-07-29T12:14:33;1.30;;;1.20;;
10005;SDS011;5042;42.626;23.382;2023-07-29T12:17:00;1.75;;;1.48;;
10005;SDS011;5042;42.626;23.382;2023-07-29T12:19:31;1.63;;;1.52;;
10005;SDS011;5042;42.626;23.382;2023-07-29T12:21:59;1.25;;;1.17;;
10005;SDS011;5042;42.626;23.382;2023-07-29T12:24:26;2.08;;;1.38;;
10005;SDS011;5042;42.626;23.382;2023-07-29T12:26:53;1.00;;;1.00;;
10005;SDS011;5042;42.626;23.382;2023-07-29T12:29:21;1.10;;;1.10;;
10005;SDS011;5042;42.626;23.382;2023-07-29T12:31:48;2.15;;;1.00;;
10005;SDS011;5042;42.626;23.382;2023-07-29T12:34:18;0.88;;;0.88;;
10005;SDS011;5042;42.626;23.382;2023-07-29T12:36:45;1.00;;;1.00;;
10005;SDS011;5042;42.626;23.382;2023-07-29T12:39:17;1.50;;;1.40;;
10005;SDS011;5042;42.626;23.382;2023-07-29T12:41:45;1.35;;;1.15;;
10005;SDS011;5042;42.626;23.382;2023-07-29T12:44:12;1.05;;;1.00;;
10005;SDS011;5042;42.626;23.382;2023-07-29T12:46:40;1.48;;;1.10;;
10005;SDS011;5042;42.626;23.382;2023-07-29T12:49:07;1.45;;;1.20;;
10005;SDS011;5042;42.626;23.382;2023-07-29T12:51:34;2.00;;;1.00;;
10005;SDS011;5042;42.626;23.382;2023-07-29T12:54:01;0.95;;;0.93;;
10005;SDS011;5042;42.626;23.382;2023-07-29T12:56:29;0.93;;;0.93;;
10005;SDS011;5042;42.626;23.382;2023-07-29T12:58:56;1.98;;;1.10;;
10005;SDS011;5042;42.626;23.382;2023-07-29T13:01:22;0.90;;;0.90;;
10005;SDS011;5042;42.626;23.382;2023-07-29T13:03:51;1.15;;;1.08;;
10005;SDS011;5042;42.626;23.382;2023-07-29T13:06:17;1.20;;;1.10;;
10005;SDS011;5042;42.626;23.382;2023-07-29T13:08:44;1.52;;;0.82;;
10005;SDS011;5042;42.626;23.382;2023-07-29T13:11:11;1.35;;;1.20;;
10005;SDS011;5042;42.626;23.382;2023-07-29T13:13:38;1.00;;;1.00;;
10005;SDS011;5042;42.626;23.382;2023-07-29T13:16:05;0.85;;;0.85;;
10005;SDS011;5042;42.626;23.382;2023-07-29T13:18:32;0.98;;;0.98;;
10005;SDS011;5042;42.626;23.382;2023-07-29T13:21:00;2.15;;;1.52;;
10005;SDS011;5042;42.626;23.382;2023-07-29T13:23:27;4.95;;;4.47;;
10005;SDS011;5042;42.626;23.382;2023-07-29T13:25:54;3.15;;;2.65;;
10005;SDS011;5042;42.626;23.382;2023-07-29T13:28:21;2.25;;;1.90;;
10005;SDS011;5042;42.626;23.382;2023-07-29T13:30:48;1.63;;;1.52;;
10005;SDS011;5042;42.626;23.382;2023-07-29T13:33:15;1.30;;;1.20;;
10005;SDS011;5042;42.626;23.382;2023-07-29T13:35:42;1.40;;;1.30;;
10005;SDS011;5042;42.626;23.382;2023-07-29T13:38:10;1.30;;;1.23;;
10005;SDS011;5042;42.626;23.382;2023-07-29T13:40:37;1.25;;;1.10;;
10005;SDS011;5042;42.626;23.382;2023-07-29T13:43:03;1.20;;;1.05;;
10005;SDS011;5042;42.626;23.382;2023-07-29T13:45:30;1.38;;;1.27;;
10005;SDS011;5042;42.626;23.382;2023-07-29T13:47:57;2.45;;;1.67;;
10005;SDS011;5042;42.626;23.382;2023-07-29T13:50:24;1.95;;;1.77;;
10005;SDS011;5042;42.626;23.382;2023-07-29T13:52:50;1.95;;;1.75;;
10005;SDS011;5042;42.626;23.382;2023-07-29T13:55:18;3.90;;;2.03;;
10005;SDS011;5042;42.626;23.382;2023-07-29T13:57:45;1.80;;;1.55;;
10005;SDS011;5042;42.626;23.382;2023-07-29T14:00:12;2.40;;;1.80;;
10005;SDS011;5042;42.626;23.382;2023-07-29T14:02:39;1.58;;;1.48;;
10005;SDS011;5042;42.626;23.382;2023-07-29T14:05:07;1.25;;;1.25;;
10005;SDS011;5042;42.626;23.382;2023-07-29T14:07:34;1.20;;;1.10;;
10005;SDS011;5042;42.626;23.382;2023-07-29T14:10:01;2.00;;;1.27;;
10005;SDS011;5042;42.626;23.382;2023-07-29T14:12:29;1.65;;;1.38;;
10005;SDS011;5042;42.626;23.382;2023-07-29T14:14:55;4.05;;;3.67;;
10005;SDS011;5042;42.626;23.382;2023-07-29T14:17:22;2.45;;;2.25;;
10005;SDS011;5042;42.626;23.382;2023-07-29T14:19:49;1.65;;;1.42;;
10005;SDS011;5042;42.626;23.382;2023-07-29T14:22:15;1.15;;;1.13;;
10005;SDS011;5042;42.626;23.382;2023-07-29T14:24:42;1.48;;;1.38;;
10005;SDS011;5042;42.626;23.382;2023-07-29T14:27:09;1.50;;;1.40;;
10005;SDS011;5042;42.626;23.382;2023-07-29T14:29:37;4.65;;;2.00;;
10005;SDS011;5042;42.626;23.382;2023-07-29T14:32:04;1.90;;;1.80;;
10005;SDS011;5042;42.626;23.382;2023-07-29T14:34:31;1.77;;;1.30;;
10005;SDS011;5042;42.626;23.382;2023-07-29T14:36:57;1.52;;;1.23;;
10005;SDS011;5042;42.626;23.382;2023-07-29T14:39:24;2.00;;;1.38;;
10005;SDS011;5042;42.626;23.382;2023-07-29T14:41:51;1.33;;;1.23;;
10005;SDS011;5042;42.626;23.382;2023-07-29T14:44:17;1.60;;;1.50;;
10005;SDS011;5042;42.626;23.382;2023-07-29T14:46:45;1.80;;;1.70;;
10005;SDS011;5042;42.626;23.382;2023-07-29T14:49:12;1.88;;;1.40;;
10005;SDS011;5042;42.626;23.382;2023-07-29T14:51:39;2.67;;;1.38;;
10005;SDS011;5042;42.626;23.382;2023-07-29T14:54:05;2.55;;;2.20;;
10005;SDS011;5042;42.626;23.382;2023-07-29T14:56:32;1.88;;;1.77;;
10005;SDS011;5042;42.626;23.382;2023-07-29T14:58:59;5.57;;;2.28;;